Burns Pinion Ridge Reserve, California Weather observations

Data are for 10 minute period ending at time listed.
 Day   Time   Solar   Ave.   Ave.  Ave.  Vector  Max.   Baro.   Total    
  of    of     Rad.   Air    Rel.  Wind   Wind   Wind  Press.  Precip.   
Year   Day            Temp.  Hum.  Speed  Dir.   Gust                    
2015   (PST)  Kw/m2    F      %     mph   deg.    mph    mb.     in.     
-------------------------------------------------------------------------
 241    2:10   0.00   69.0    38    0.3   324     0.9   875.6    0.00 
 241    2:20   0.00   68.8    38    0.0   306     0.3   875.6    0.00 
 241    2:30   0.00   68.6    38    0.0   306     0.4   875.5    0.00 
 241    2:40   0.00   68.2    39    0.2   302     1.3   875.5    0.00 
 241    2:50   0.00   68.2    39    0.1   346     0.9   875.5    0.00 
 241    3:00   0.00   68.8    38    0.7   309     2.9   875.5    0.00 
 241    3:10   0.00   68.6    38    0.7   343     2.6   875.5    0.00 
 241    3:20   0.00   68.0    39    0.7   334     1.8   875.5    0.00 
 241    3:30   0.00   68.3    39    0.1   333     0.6   875.5    0.00 
 241    3:40   0.00   67.9    40    0.0     0     0.0   875.5    0.00 
 241    3:50   0.00   67.3    41    0.7   310     2.1   875.4    0.00 
 241    4:00   0.00   66.8    42    1.6   316     2.4   875.5    0.00 
 241    4:10   0.00   67.3    41    1.2   299     1.9   875.4    0.00 
 241    4:20   0.00   66.9    41    0.5   318     1.1   875.5    0.00 
 241    4:30   0.00   66.5    42    0.6   330     1.5   875.5    0.00 
 241    4:40   0.00   66.8    41    1.1   348     2.4   875.5    0.00 
 241    4:50   0.00   67.5    40    1.0   318     2.3   875.5    0.00 
 241    5:00   0.00   66.9    42    0.3   297     1.3   875.7    0.00 
 241    5:10   0.00   66.5    42    0.3   334     1.3   875.8    0.00 
 241    5:20   0.00   66.4    42    0.4   328     1.3   875.8    0.00 
 241    5:30   0.01   66.0    43    0.3   290     1.2   875.9    0.00 
 241    5:40   0.01   65.6    44    0.1   221     1.2   875.9    0.00 
 241    5:50   0.02   66.0    43    0.0     0     0.0   876.0    0.00 
 241    6:00   0.03   67.7    41    0.1   283     1.0   876.2    0.00 
 241    6:10   0.04   68.6    40    0.0     0     0.0   876.3    0.00 
 241    6:20   0.13   73.0    34    0.8   331     2.4   876.4    0.00 
 241    6:30   0.17   78.4    28    1.0   344     2.1   876.5    0.00 
 241    6:40   0.20   81.9    26    1.3    77     4.2   876.6    0.00 
 241    6:50   0.24   84.5    24    1.1    44     4.1   876.8    0.00 
 241    7:00   0.28   85.4    23    1.7    86     4.2   877.0    0.00 
 241    7:10   0.31   85.6    22    2.4   104     4.9   877.1    0.00 
 241    7:20   0.35   85.6    22    2.9   102     5.1   877.2    0.00 
 241    7:30   0.39   86.1    22    2.9   104     5.4   877.4    0.00 
 241    7:40   0.43   87.0    21    2.3   109     5.8   877.3    0.00 
 241    7:50   0.46   88.6    20    2.6    85     5.3   877.3    0.00 
 241    8:00   0.50   88.0    20    3.5    79     7.7   877.4    0.00 
 241    8:10   0.53   87.7    20    3.3    89     7.5   877.4    0.00 
 241    8:20   0.56   87.3    20    3.7    92     6.7   877.4    0.00 
 241    8:30   0.60   88.5    19    3.2   111     7.8   877.5    0.00 
 241    8:40   0.63   88.3    20    3.5    76     7.2   877.5    0.00 
 241    8:50   0.66   88.8    19    4.7    62     9.7   877.6    0.00 
 241    9:00   0.68   88.9    19    3.4    59     7.4   877.6    0.00 
 241    9:10   0.71   89.6    19    3.6    70    10.0   877.6    0.00 
 241    9:20   0.74   89.4    19    5.0   121     8.3   877.5    0.00 
 241    9:30   0.76   89.6    19    4.2   108     9.1   877.5    0.00 
 241    9:40   0.79   90.5    18    4.6   120     9.2   877.6    0.00 
 241    9:50   0.81   90.8    18    4.3    98    11.5   877.6    0.00 
 241   10:00   0.83   91.4    17    5.0   150    11.2   877.5    0.00 
 241   10:10   0.85   91.3    17    5.6   119    13.9   877.4    0.00 
 241   10:20   0.86   91.4    16    5.7   168    16.2   877.4    0.00 
 241   10:30   0.88   91.8    16    4.5   148     9.6   877.3    0.00 
 241   10:40   0.90   92.9    15    7.0   148    17.5   877.2    0.00 
 241   10:50   0.91   92.8    15    8.7   153    17.5   877.0    0.00 
 241   11:00   0.92   93.3    15    6.8   154    15.9   877.0    0.00 
 241   11:10   0.92   94.0    15    6.3   157    14.4   876.9    0.00 
 241   11:20   0.93   93.2    15    9.4   149    20.0   876.7    0.00 
 241   11:30   0.94   93.9    15    8.7   147    17.8   876.6    0.00 
 241   11:40   0.94   93.3    15    8.1   151    16.1   876.6    0.00 
 241   11:50   0.94   93.1    15    8.3   152    16.2   876.5    0.00 
 241   12:00   0.92   93.4    15    8.1   158    18.3   876.4    0.00 
 241   12:10   0.94   93.8    15    7.1   155    16.3   876.3    0.00 
 241   12:20   0.94   93.7    15    8.8   145    18.7   876.2    0.00 
 241   12:30   0.93   93.5    15   11.2   142    19.6   876.1    0.00 
 241   12:40   0.92   93.5    15    9.8   149    19.2   876.1    0.00 
 241   12:50   0.91   94.2    15   10.1   152    19.1   876.0    0.00 
 241   13:00   0.90   93.9    15    9.1   158    17.3   875.9    0.00 
 241   13:10   0.89   93.6    15    8.7   217    19.1   875.9    0.00 
 241   13:20   0.88   93.7    15    7.4   200    17.4   875.8    0.00 
 241   13:30   0.86   93.7    15    7.7   188    19.2   875.6    0.00 
 241   13:40   0.84   94.0    15    9.5   173    17.4   875.5    0.00 
 241   13:50   0.82   94.3    15    9.8   180    19.6   875.3    0.00 
 241   14:00   0.81   94.0    15    8.5   179    17.7   875.2    0.00 
 241   14:10   0.78   95.1    15    7.1   206    19.6   875.1    0.00 
 241   14:20   0.76   93.1    16   11.3   222    18.8   875.1    0.00 
 241   14:30   0.73   92.5    16   11.5   220    21.6   875.0    0.00 
 241   14:40   0.70   92.6    16   10.2   216    20.4   874.9    0.00 
 241   14:50   0.67   92.5    16   10.8   204    18.8   874.9    0.00 
 241   15:00   0.64   93.2    15    9.3   203    18.4   874.8    0.00 
 241   15:10   0.61   92.3    16   11.0   233    22.4   874.7    0.00 
 241   15:20   0.57   92.0    16   12.8   223    26.7   874.7    0.00 
 241   15:30   0.54   90.9    16   13.0   214    25.1   874.7    0.00 
 241   15:40   0.51   91.3    16   11.8   214    22.2   874.6    0.00 
 241   15:50   0.48   90.9    17   12.9   215    24.1   874.5    0.00 
 241   16:00   0.44   91.1    17   12.2   213    21.5   874.5    0.00 
 241   16:10   0.41   91.3    16   10.7   220    19.0   874.5    0.00 
 241   16:20   0.37   91.0    17   12.8   217    20.5   874.5    0.00 
 241   16:30   0.34   90.3    17   12.4   216    21.1   874.4    0.00 
 241   16:40   0.30   90.6    17   10.9   219    22.5   874.4    0.00 
 241   16:50   0.27   90.7    17   11.2   213    19.8   874.5    0.00 
 241   17:00   0.23   89.9    18   11.7   213    21.2   874.4    0.00 
 241   17:10   0.19   89.5    18   11.3   216    19.4   874.4    0.00 
 241   17:20   0.16   89.3    18    9.9   219    18.7   874.4    0.00 
 241   17:30   0.13   88.6    20   10.9   215    18.1   874.4    0.00 
 241   17:40   0.09   87.9    19   12.3   212    19.9   874.4    0.00 
 241   17:50   0.06   87.0    20   12.6   212    20.4   874.5    0.00 
 241   18:00   0.03   86.3    20   12.1   215    19.9   874.5    0.00 
 241   18:10   0.01   85.2    20   12.0   212    19.5   874.5    0.00 
 241   18:20   0.00   84.6    21   10.6   210    17.4   874.5    0.00 
 241   18:30   0.00   84.1    20    8.9   212    16.6   874.6    0.00 
 241   18:40   0.00   83.5    20   10.1   215    15.1   874.7    0.00 
 241   18:50   0.00   83.0    21   11.2   215    19.3   874.7    0.00 
 241   19:00   0.00   82.8    22    9.6   221    15.6   874.7    0.00 
 241   19:10   0.00   82.5    22   10.9   222    19.6   874.8    0.00 
 241   19:20   0.00   82.2    22    9.9   214    18.9   874.9    0.00 
 241   19:30   0.00   81.8    23    8.8   218    17.7   874.9    0.00 
 241   19:40   0.00   81.5    23    9.5   222    15.9   875.1    0.00 
 241   19:50   0.00   81.4    23    8.0   222    14.2   875.1    0.00 
 241   20:00   0.00   81.2    23    9.6   221    16.1   875.1    0.00 
 241   20:10   0.00   81.0    23    9.0   214    15.7   873.4    0.00 
 241   20:20   0.00   80.7    23    8.0   213    14.5   875.4    0.00 
 241   20:30   0.00   80.9    22   11.8   214    19.6   875.3    0.00 
 241   20:40   0.00   81.0    22    9.1   215    16.4   875.2    0.00 
 241   20:50   0.00   80.9    22    8.4   216    14.6   875.2    0.00 
 241   21:00   0.00   80.9    22    8.6   216    14.5   875.2    0.00 
 241   21:10   0.00   81.0    22    7.3   216    12.4   873.4    0.00 
 241   21:20   0.00   80.6    21    7.7   236    14.2   875.2    0.00 
 241   21:30   0.00   80.5    22    8.9   247    15.3   875.2    0.00 
 241   21:40   0.00   80.6    22    8.2   242    18.5   875.1    0.00 
 241   21:50   0.00   80.7    23    7.8   241    14.4   875.1    0.00 
 241   22:00   0.00   80.5    23    5.5   226    12.0   875.0    0.00 
 241   22:10   0.00   80.4    23    5.4   234    13.4   873.1    0.00 
 241   22:20   0.00   80.4    24    6.1   241    13.1   874.9    0.00 
 241   22:30   0.00   80.1    24    3.6   226     8.3   874.9    0.00 
 241   22:40   0.00   79.7    25    3.4   237     8.3   875.0    0.00 
 241   22:50   0.00   79.2    25    3.5   223     9.2   874.9    0.00 
 241   23:00   0.00   79.5    25    4.8   216     9.9   874.9    0.00 
 241   23:10   0.00   80.1    24    5.3   219    11.5   875.0    0.00 
 241   23:20   0.00   80.0    23    3.9   257     9.7   875.2    0.00 
 241   23:30   0.00   78.4    24    2.6   291     5.5   875.3    0.00 
 241   23:40   0.00   77.6    23    1.4    96     3.4   875.3    0.00 
 241   23:50   0.00   77.5    22    0.8    54     2.8   875.2    0.00 
 242    0:00   0.00   76.4    22    1.4   137     4.7   875.2    0.00 
 242    0:10   0.00   75.9    22    2.1   132     3.6   875.1    0.00 
 242    0:20   0.00   74.7    24    0.7   359     3.4   875.1    0.00 
 242    0:30   0.00   74.1    25    2.8    77     5.3   875.0    0.00 
 242    0:40   0.00   75.8    25    2.3    73     7.0   874.9    0.00 
 242    0:50   0.00   77.2    24    4.8    80     8.6   874.8    0.00 
 242    1:00   0.00   76.5    24    3.4    83     6.8   874.8    0.00 
 242    1:10   0.00   75.8    25    3.2   115     6.6   874.8    0.00 
 242    1:20   0.00   75.8    24    4.9    98     9.3   874.8    0.00 
 242    1:30   0.00   76.4    24    5.8    99     8.3   874.9    0.00 
 242    1:40   0.00   76.1    24    5.1    91     8.0   874.9    0.00 
 242    1:50   0.00   75.5    24    5.7    85     8.7   874.9    0.00 
 242    2:00   0.00   75.2    24    4.7    80     7.0   875.0    0.00 

Return to Burns Pinion Ridge Reserve graphs page.


Western Regional Climate Center,wrcc@dri.edu